sensor_id;sensor_type;location;lat;lon;timestamp;P1;durP1;ratioP1;P2;durP2;ratioP2
7707;SDS011;3896;48.758;8.888;2024-03-06T00:00:31;2.30;;;2.03;;
7707;SDS011;3896;48.758;8.888;2024-03-06T00:02:58;2.10;;;1.90;;
7707;SDS011;3896;48.758;8.888;2024-03-06T00:05:23;2.13;;;1.70;;
7707;SDS011;3896;48.758;8.888;2024-03-06T00:07:49;2.40;;;1.90;;
7707;SDS011;3896;48.758;8.888;2024-03-06T00:10:14;2.33;;;1.87;;
7707;SDS011;3896;48.758;8.888;2024-03-06T00:12:40;2.27;;;2.07;;
7707;SDS011;3896;48.758;8.888;2024-03-06T00:15:06;3.47;;;2.07;;
7707;SDS011;3896;48.758;8.888;2024-03-06T00:17:32;1.60;;;1.50;;
7707;SDS011;3896;48.758;8.888;2024-03-06T00:19:57;2.03;;;1.83;;
7707;SDS011;3896;48.758;8.888;2024-03-06T00:22:23;2.90;;;2.10;;
7707;SDS011;3896;48.758;8.888;2024-03-06T00:24:48;2.07;;;1.67;;
7707;SDS011;3896;48.758;8.888;2024-03-06T00:27:14;2.17;;;2.00;;
7707;SDS011;3896;48.758;8.888;2024-03-06T00:29:39;3.80;;;2.20;;
7707;SDS011;3896;48.758;8.888;2024-03-06T00:32:05;3.97;;;2.57;;
7707;SDS011;3896;48.758;8.888;2024-03-06T00:34:30;1.80;;;1.70;;
7707;SDS011;3896;48.758;8.888;2024-03-06T00:36:56;2.10;;;1.90;;
7707;SDS011;3896;48.758;8.888;2024-03-06T00:39:22;1.97;;;1.87;;
7707;SDS011;3896;48.758;8.888;2024-03-06T00:41:47;2.10;;;1.90;;
7707;SDS011;3896;48.758;8.888;2024-03-06T00:44:13;2.00;;;1.90;;
7707;SDS011;3896;48.758;8.888;2024-03-06T00:46:40;2.03;;;1.90;;
7707;SDS011;3896;48.758;8.888;2024-03-06T00:49:05;5.17;;;1.70;;
7707;SDS011;3896;48.758;8.888;2024-03-06T00:51:31;1.67;;;1.30;;
7707;SDS011;3896;48.758;8.888;2024-03-06T00:54:01;3.87;;;2.20;;
7707;SDS011;3896;48.758;8.888;2024-03-06T00:56:26;3.10;;;1.93;;
7707;SDS011;3896;48.758;8.888;2024-03-06T00:58:52;2.57;;;1.77;;
7707;SDS011;3896;48.758;8.888;2024-03-06T01:01:17;2.07;;;1.87;;
7707;SDS011;3896;48.758;8.888;2024-03-06T01:03:43;2.70;;;1.93;;
7707;SDS011;3896;48.758;8.888;2024-03-06T01:06:09;2.30;;;1.60;;
7707;SDS011;3896;48.758;8.888;2024-03-06T01:08:34;1.37;;;1.27;;
7707;SDS011;3896;48.758;8.888;2024-03-06T01:11:01;1.57;;;1.50;;
7707;SDS011;3896;48.758;8.888;2024-03-06T01:13:26;1.57;;;1.47;;
7707;SDS011;3896;48.758;8.888;2024-03-06T01:15:52;2.10;;;1.73;;
7707;SDS011;3896;48.758;8.888;2024-03-06T01:18:17;1.77;;;1.50;;
7707;SDS011;3896;48.758;8.888;2024-03-06T01:20:43;1.70;;;1.60;;
7707;SDS011;3896;48.758;8.888;2024-03-06T01:23:09;3.77;;;1.70;;
7707;SDS011;3896;48.758;8.888;2024-03-06T01:25:34;1.70;;;1.60;;
7707;SDS011;3896;48.758;8.888;2024-03-06T01:28:00;2.60;;;1.50;;
7707;SDS011;3896;48.758;8.888;2024-03-06T01:30:25;1.70;;;1.40;;
7707;SDS011;3896;48.758;8.888;2024-03-06T01:32:51;3.17;;;2.00;;
7707;SDS011;3896;48.758;8.888;2024-03-06T01:35:16;1.60;;;1.50;;
7707;SDS011;3896;48.758;8.888;2024-03-06T01:37:42;1.97;;;1.77;;
7707;SDS011;3896;48.758;8.888;2024-03-06T01:40:08;2.43;;;1.50;;
7707;SDS011;3896;48.758;8.888;2024-03-06T01:42:34;2.03;;;1.87;;
7707;SDS011;3896;48.758;8.888;2024-03-06T01:45:00;1.80;;;1.70;;
7707;SDS011;3896;48.758;8.888;2024-03-06T01:47:27;3.77;;;1.90;;
7707;SDS011;3896;48.758;8.888;2024-03-06T01:49:53;1.77;;;1.67;;
7707;SDS011;3896;48.758;8.888;2024-03-06T01:52:18;1.90;;;1.67;;
7707;SDS011;3896;48.758;8.888;2024-03-06T01:54:46;1.77;;;1.63;;
7707;SDS011;3896;48.758;8.888;2024-03-06T01:57:15;1.87;;;1.77;;
7707;SDS011;3896;48.758;8.888;2024-03-06T01:59:42;1.80;;;1.70;;
7707;SDS011;3896;48.758;8.888;2024-03-06T02:02:08;1.73;;;1.63;;
7707;SDS011;3896;48.758;8.888;2024-03-06T02:04:36;2.50;;;2.00;;
7707;SDS011;3896;48.758;8.888;2024-03-06T02:07:02;2.03;;;1.43;;
7707;SDS011;3896;48.758;8.888;2024-03-06T02:09:29;2.87;;;1.90;;
7707;SDS011;3896;48.758;8.888;2024-03-06T02:11:54;1.83;;;1.70;;
7707;SDS011;3896;48.758;8.888;2024-03-06T02:14:20;3.07;;;1.73;;
7707;SDS011;3896;48.758;8.888;2024-03-06T02:16:45;1.53;;;1.43;;
7707;SDS011;3896;48.758;8.888;2024-03-06T02:19:11;2.30;;;2.03;;
7707;SDS011;3896;48.758;8.888;2024-03-06T02:21:36;2.77;;;2.20;;
7707;SDS011;3896;48.758;8.888;2024-03-06T02:24:02;2.27;;;1.37;;
7707;SDS011;3896;48.758;8.888;2024-03-06T02:26:28;2.43;;;1.90;;
7707;SDS011;3896;48.758;8.888;2024-03-06T02:28:54;2.50;;;1.90;;
7707;SDS011;3896;48.758;8.888;2024-03-06T02:31:21;2.00;;;1.87;;
7707;SDS011;3896;48.758;8.888;2024-03-06T02:33:48;2.47;;;1.73;;
7707;SDS011;3896;48.758;8.888;2024-03-06T02:36:17;2.13;;;1.70;;
7707;SDS011;3896;48.758;8.888;2024-03-06T02:38:44;2.47;;;2.20;;
7707;SDS011;3896;48.758;8.888;2024-03-06T02:41:10;2.30;;;2.03;;
7707;SDS011;3896;48.758;8.888;2024-03-06T02:59:32;3.30;;;2.50;;
7707;SDS011;3896;48.758;8.888;2024-03-06T03:01:57;2.63;;;1.90;;
7707;SDS011;3896;48.758;8.888;2024-03-06T03:04:23;2.07;;;1.87;;
7707;SDS011;3896;48.758;8.888;2024-03-06T03:06:48;3.20;;;2.23;;
7707;SDS011;3896;48.758;8.888;2024-03-06T03:09:14;4.57;;;2.23;;
7707;SDS011;3896;48.758;8.888;2024-03-06T03:11:41;4.60;;;2.03;;
7707;SDS011;3896;48.758;8.888;2024-03-06T03:14:17;2.37;;;2.00;;
7707;SDS011;3896;48.758;8.888;2024-03-06T03:16:42;2.70;;;2.07;;
7707;SDS011;3896;48.758;8.888;2024-03-06T03:19:09;2.93;;;2.33;;
7707;SDS011;3896;48.758;8.888;2024-03-06T03:21:34;2.57;;;1.90;;
7707;SDS011;3896;48.758;8.888;2024-03-06T03:24:00;3.27;;;1.70;;
7707;SDS011;3896;48.758;8.888;2024-03-06T03:26:25;2.03;;;1.93;;
7707;SDS011;3896;48.758;8.888;2024-03-06T03:28:51;2.30;;;1.97;;
7707;SDS011;3896;48.758;8.888;2024-03-06T03:31:16;2.77;;;2.27;;
7707;SDS011;3896;48.758;8.888;2024-03-06T03:33:42;3.33;;;2.13;;
7707;SDS011;3896;48.758;8.888;2024-03-06T03:36:08;2.30;;;2.10;;
7707;SDS011;3896;48.758;8.888;2024-03-06T03:38:35;2.23;;;2.03;;
7707;SDS011;3896;48.758;8.888;2024-03-06T03:41:06;2.10;;;1.80;;
7707;SDS011;3896;48.758;8.888;2024-03-06T03:43:37;4.47;;;2.73;;
7707;SDS011;3896;48.758;8.888;2024-03-06T03:46:04;2.73;;;1.80;;
7707;SDS011;3896;48.758;8.888;2024-03-06T03:48:30;2.53;;;2.20;;
7707;SDS011;3896;48.758;8.888;2024-03-06T03:50:56;1.77;;;1.67;;
7707;SDS011;3896;48.758;8.888;2024-03-06T03:53:21;2.30;;;2.10;;
7707;SDS011;3896;48.758;8.888;2024-03-06T03:55:47;2.03;;;1.93;;
7707;SDS011;3896;48.758;8.888;2024-03-06T03:58:12;3.00;;;1.93;;
7707;SDS011;3896;48.758;8.888;2024-03-06T04:00:38;3.10;;;2.00;;
7707;SDS011;3896;48.758;8.888;2024-03-06T04:03:04;3.17;;;2.00;;
7707;SDS011;3896;48.758;8.888;2024-03-06T04:05:29;2.60;;;2.40;;
7707;SDS011;3896;48.758;8.888;2024-03-06T04:07:56;4.27;;;2.53;;
7707;SDS011;3896;48.758;8.888;2024-03-06T04:10:22;2.43;;;2.17;;
7707;SDS011;3896;48.758;8.888;2024-03-06T04:12:47;2.50;;;2.30;;
7707;SDS011;3896;48.758;8.888;2024-03-06T04:15:13;3.77;;;2.50;;
7707;SDS011;3896;48.758;8.888;2024-03-06T04:17:39;3.37;;;2.00;;
7707;SDS011;3896;48.758;8.888;2024-03-06T04:20:06;2.67;;;2.10;;
7707;SDS011;3896;48.758;8.888;2024-03-06T04:22:32;2.70;;;2.10;;
7707;SDS011;3896;48.758;8.888;2024-03-06T04:24:58;2.77;;;2.50;;
7707;SDS011;3896;48.758;8.888;2024-03-06T04:27:24;2.60;;;2.40;;
7707;SDS011;3896;48.758;8.888;2024-03-06T04:29:50;2.83;;;2.00;;
7707;SDS011;3896;48.758;8.888;2024-03-06T04:32:15;2.30;;;2.17;;
7707;SDS011;3896;48.758;8.888;2024-03-06T04:34:41;4.73;;;2.47;;
7707;SDS011;3896;48.758;8.888;2024-03-06T04:37:06;4.17;;;2.33;;
7707;SDS011;3896;48.758;8.888;2024-03-06T04:39:32;2.70;;;2.37;;
7707;SDS011;3896;48.758;8.888;2024-03-06T04:41:58;2.13;;;2.00;;
7707;SDS011;3896;48.758;8.888;2024-03-06T04:44:23;2.93;;;2.23;;
7707;SDS011;3896;48.758;8.888;2024-03-06T04:46:51;3.27;;;2.30;;
7707;SDS011;3896;48.758;8.888;2024-03-06T04:49:17;4.57;;;2.83;;
7707;SDS011;3896;48.758;8.888;2024-03-06T04:51:42;4.10;;;2.30;;
7707;SDS011;3896;48.758;8.888;2024-03-06T04:54:08;4.47;;;2.07;;
7707;SDS011;3896;48.758;8.888;2024-03-06T04:56:33;5.20;;;2.60;;
7707;SDS011;3896;48.758;8.888;2024-03-06T04:58:59;3.80;;;3.00;;
7707;SDS011;3896;48.758;8.888;2024-03-06T05:01:28;3.70;;;2.67;;
7707;SDS011;3896;48.758;8.888;2024-03-06T05:03:54;3.63;;;2.40;;
7707;SDS011;3896;48.758;8.888;2024-03-06T05:06:20;2.50;;;2.30;;
7707;SDS011;3896;48.758;8.888;2024-03-06T05:08:47;3.83;;;2.23;;
7707;SDS011;3896;48.758;8.888;2024-03-06T05:11:12;2.90;;;2.67;;
7707;SDS011;3896;48.758;8.888;2024-03-06T05:13:38;4.27;;;2.80;;
7707;SDS011;3896;48.758;8.888;2024-03-06T05:16:04;3.60;;;2.73;;
7707;SDS011;3896;48.758;8.888;2024-03-06T05:18:30;2.93;;;2.70;;
7707;SDS011;3896;48.758;8.888;2024-03-06T05:20:55;4.17;;;2.90;;
7707;SDS011;3896;48.758;8.888;2024-03-06T05:23:21;3.80;;;3.37;;
7707;SDS011;3896;48.758;8.888;2024-03-06T05:25:47;4.30;;;3.40;;
7707;SDS011;3896;48.758;8.888;2024-03-06T05:28:13;4.53;;;3.20;;
7707;SDS011;3896;48.758;8.888;2024-03-06T05:30:38;4.63;;;3.40;;
7707;SDS011;3896;48.758;8.888;2024-03-06T05:33:04;4.70;;;3.57;;
7707;SDS011;3896;48.758;8.888;2024-03-06T05:35:30;5.57;;;3.63;;
7707;SDS011;3896;48.758;8.888;2024-03-06T05:37:56;4.23;;;3.23;;
7707;SDS011;3896;48.758;8.888;2024-03-06T05:40:21;5.13;;;3.77;;
7707;SDS011;3896;48.758;8.888;2024-03-06T05:42:47;4.10;;;3.23;;
7707;SDS011;3896;48.758;8.888;2024-03-06T05:45:13;4.07;;;3.63;;
7707;SDS011;3896;48.758;8.888;2024-03-06T05:47:38;5.17;;;3.97;;
7707;SDS011;3896;48.758;8.888;2024-03-06T05:50:07;4.63;;;3.50;;
7707;SDS011;3896;48.758;8.888;2024-03-06T05:52:33;4.37;;;3.90;;
7707;SDS011;3896;48.758;8.888;2024-03-06T05:54:59;4.23;;;3.57;;
7707;SDS011;3896;48.758;8.888;2024-03-06T05:57:25;6.07;;;3.77;;
7707;SDS011;3896;48.758;8.888;2024-03-06T05:59:50;6.60;;;3.90;;
7707;SDS011;3896;48.758;8.888;2024-03-06T06:02:16;5.33;;;4.03;;
7707;SDS011;3896;48.758;8.888;2024-03-06T06:04:42;8.50;;;4.00;;
7707;SDS011;3896;48.758;8.888;2024-03-06T06:07:07;7.30;;;4.90;;
7707;SDS011;3896;48.758;8.888;2024-03-06T06:09:33;7.60;;;5.60;;
7707;SDS011;3896;48.758;8.888;2024-03-06T06:11:58;6.27;;;4.80;;
7707;SDS011;3896;48.758;8.888;2024-03-06T06:14:24;9.40;;;5.03;;
7707;SDS011;3896;48.758;8.888;2024-03-06T06:16:52;8.17;;;5.00;;
7707;SDS011;3896;48.758;8.888;2024-03-06T06:19:17;5.07;;;4.10;;
7707;SDS011;3896;48.758;8.888;2024-03-06T06:21:43;4.83;;;3.63;;
7707;SDS011;3896;48.758;8.888;2024-03-06T06:24:08;4.17;;;3.60;;
7707;SDS011;3896;48.758;8.888;2024-03-06T06:26:34;4.00;;;3.60;;
7707;SDS011;3896;48.758;8.888;2024-03-06T06:29:00;5.13;;;3.63;;
7707;SDS011;3896;48.758;8.888;2024-03-06T06:31:26;10.20;;;4.00;;
7707;SDS011;3896;48.758;8.888;2024-03-06T06:33:52;5.60;;;3.33;;
7707;SDS011;3896;48.758;8.888;2024-03-06T06:36:18;5.43;;;3.67;;
7707;SDS011;3896;48.758;8.888;2024-03-06T06:38:44;5.43;;;3.77;;
7707;SDS011;3896;48.758;8.888;2024-03-06T06:41:10;5.27;;;3.07;;
7707;SDS011;3896;48.758;8.888;2024-03-06T06:43:35;3.87;;;3.57;;
7707;SDS011;3896;48.758;8.888;2024-03-06T06:46:01;4.20;;;3.50;;
7707;SDS011;3896;48.758;8.888;2024-03-06T06:48:29;4.90;;;3.27;;
7707;SDS011;3896;48.758;8.888;2024-03-06T06:50:55;5.47;;;3.33;;
7707;SDS011;3896;48.758;8.888;2024-03-06T06:53:21;7.63;;;3.50;;
7707;SDS011;3896;48.758;8.888;2024-03-06T06:55:46;6.47;;;4.10;;
7707;SDS011;3896;48.758;8.888;2024-03-06T06:58:12;5.57;;;3.50;;
7707;SDS011;3896;48.758;8.888;2024-03-06T07:00:37;2.93;;;2.63;;
7707;SDS011;3896;48.758;8.888;2024-03-06T07:03:03;3.70;;;3.10;;
7707;SDS011;3896;48.758;8.888;2024-03-06T07:05:29;3.50;;;3.20;;
7707;SDS011;3896;48.758;8.888;2024-03-06T07:07:54;4.97;;;3.13;;
7707;SDS011;3896;48.758;8.888;2024-03-06T07:10:20;5.27;;;3.27;;
7707;SDS011;3896;48.758;8.888;2024-03-06T07:12:46;4.63;;;3.43;;
7707;SDS011;3896;48.758;8.888;2024-03-06T07:15:12;3.03;;;2.83;;
7707;SDS011;3896;48.758;8.888;2024-03-06T07:17:37;4.13;;;2.67;;
7707;SDS011;3896;48.758;8.888;2024-03-06T07:20:03;2.63;;;2.43;;
7707;SDS011;3896;48.758;8.888;2024-03-06T07:22:31;3.97;;;3.13;;
7707;SDS011;3896;48.758;8.888;2024-03-06T07:24:58;3.50;;;2.77;;
7707;SDS011;3896;48.758;8.888;2024-03-06T07:27:23;3.33;;;2.57;;
7707;SDS011;3896;48.758;8.888;2024-03-06T07:29:49;4.27;;;2.83;;
7707;SDS011;3896;48.758;8.888;2024-03-06T07:32:14;2.47;;;2.27;;
7707;SDS011;3896;48.758;8.888;2024-03-06T07:34:40;4.87;;;2.77;;
7707;SDS011;3896;48.758;8.888;2024-03-06T07:37:05;3.40;;;2.80;;
7707;SDS011;3896;48.758;8.888;2024-03-06T07:39:31;3.10;;;2.80;;
7707;SDS011;3896;48.758;8.888;2024-03-06T07:41:56;2.77;;;2.23;;
7707;SDS011;3896;48.758;8.888;2024-03-06T07:44:22;3.73;;;2.87;;
7707;SDS011;3896;48.758;8.888;2024-03-06T07:46:48;4.50;;;2.80;;
7707;SDS011;3896;48.758;8.888;2024-03-06T07:49:13;2.70;;;2.50;;
7707;SDS011;3896;48.758;8.888;2024-03-06T07:51:39;3.47;;;2.43;;
7707;SDS011;3896;48.758;8.888;2024-03-06T07:54:07;3.70;;;2.97;;
7707;SDS011;3896;48.758;8.888;2024-03-06T07:56:33;3.27;;;2.93;;
7707;SDS011;3896;48.758;8.888;2024-03-06T07:59:00;3.03;;;2.70;;
7707;SDS011;3896;48.758;8.888;2024-03-06T08:01:25;4.00;;;2.67;;
7707;SDS011;3896;48.758;8.888;2024-03-06T08:03:53;2.43;;;2.23;;
7707;SDS011;3896;48.758;8.888;2024-03-06T08:06:20;4.27;;;2.77;;
7707;SDS011;3896;48.758;8.888;2024-03-06T08:08:45;5.47;;;2.77;;
7707;SDS011;3896;48.758;8.888;2024-03-06T08:11:12;3.07;;;2.50;;
7707;SDS011;3896;48.758;8.888;2024-03-06T08:13:38;4.97;;;2.80;;
7707;SDS011;3896;48.758;8.888;2024-03-06T08:16:07;3.67;;;2.43;;
7707;SDS011;3896;48.758;8.888;2024-03-06T08:18:33;3.57;;;2.40;;
7707;SDS011;3896;48.758;8.888;2024-03-06T08:20:59;4.30;;;2.43;;
7707;SDS011;3896;48.758;8.888;2024-03-06T08:23:25;5.83;;;2.80;;
7707;SDS011;3896;48.758;8.888;2024-03-06T08:25:51;4.63;;;2.50;;
7707;SDS011;3896;48.758;8.888;2024-03-06T08:28:20;4.30;;;2.57;;
7707;SDS011;3896;48.758;8.888;2024-03-06T08:30:46;7.50;;;3.13;;
7707;SDS011;3896;48.758;8.888;2024-03-06T08:33:11;5.50;;;2.70;;
7707;SDS011;3896;48.758;8.888;2024-03-06T08:35:37;3.93;;;2.57;;
7707;SDS011;3896;48.758;8.888;2024-03-06T08:38:03;4.57;;;3.00;;
7707;SDS011;3896;48.758;8.888;2024-03-06T08:40:29;4.10;;;3.03;;
7707;SDS011;3896;48.758;8.888;2024-03-06T08:42:55;5.43;;;2.90;;
7707;SDS011;3896;48.758;8.888;2024-03-06T08:45:21;3.07;;;2.57;;
7707;SDS011;3896;48.758;8.888;2024-03-06T08:47:48;2.63;;;2.43;;
7707;SDS011;3896;48.758;8.888;2024-03-06T08:50:14;4.13;;;2.83;;
7707;SDS011;3896;48.758;8.888;2024-03-06T08:52:40;3.23;;;2.37;;
7707;SDS011;3896;48.758;8.888;2024-03-06T08:55:06;3.97;;;3.00;;
7707;SDS011;3896;48.758;8.888;2024-03-06T08:57:32;3.47;;;2.80;;
7707;SDS011;3896;48.758;8.888;2024-03-06T08:59:59;5.43;;;3.00;;
7707;SDS011;3896;48.758;8.888;2024-03-06T09:02:24;6.13;;;3.43;;
7707;SDS011;3896;48.758;8.888;2024-03-06T09:04:51;4.23;;;3.10;;
7707;SDS011;3896;48.758;8.888;2024-03-06T09:07:17;3.77;;;2.63;;
7707;SDS011;3896;48.758;8.888;2024-03-06T09:09:43;3.77;;;3.10;;
7707;SDS011;3896;48.758;8.888;2024-03-06T09:12:09;4.63;;;2.83;;
7707;SDS011;3896;48.758;8.888;2024-03-06T09:14:38;3.50;;;2.83;;
7707;SDS011;3896;48.758;8.888;2024-03-06T09:17:05;5.07;;;3.40;;
7707;SDS011;3896;48.758;8.888;2024-03-06T09:19:31;7.33;;;3.53;;
7707;SDS011;3896;48.758;8.888;2024-03-06T09:21:57;4.67;;;3.07;;
7707;SDS011;3896;48.758;8.888;2024-03-06T09:24:24;5.00;;;2.77;;
7707;SDS011;3896;48.758;8.888;2024-03-06T09:26:50;3.50;;;3.20;;
7707;SDS011;3896;48.758;8.888;2024-03-06T09:29:16;4.90;;;4.47;;
7707;SDS011;3896;48.758;8.888;2024-03-06T09:31:42;4.57;;;4.00;;
7707;SDS011;3896;48.758;8.888;2024-03-06T09:34:08;5.67;;;3.50;;
7707;SDS011;3896;48.758;8.888;2024-03-06T09:36:37;5.23;;;3.40;;
7707;SDS011;3896;48.758;8.888;2024-03-06T09:39:03;3.70;;;3.40;;
7707;SDS011;3896;48.758;8.888;2024-03-06T09:41:29;4.33;;;3.93;;
7707;SDS011;3896;48.758;8.888;2024-03-06T09:43:56;3.83;;;3.13;;
7707;SDS011;3896;48.758;8.888;2024-03-06T09:46:22;4.07;;;3.23;;
7707;SDS011;3896;48.758;8.888;2024-03-06T09:48:47;6.10;;;3.47;;
7707;SDS011;3896;48.758;8.888;2024-03-06T09:51:14;4.50;;;3.70;;
7707;SDS011;3896;48.758;8.888;2024-03-06T09:53:40;5.10;;;3.80;;
7707;SDS011;3896;48.758;8.888;2024-03-06T09:56:08;4.20;;;3.73;;
7707;SDS011;3896;48.758;8.888;2024-03-06T09:58:37;4.27;;;3.87;;
7707;SDS011;3896;48.758;8.888;2024-03-06T10:01:02;3.73;;;3.30;;
7707;SDS011;3896;48.758;8.888;2024-03-06T10:03:32;4.13;;;3.73;;
7707;SDS011;3896;48.758;8.888;2024-03-06T10:06:01;4.80;;;4.10;;
7707;SDS011;3896;48.758;8.888;2024-03-06T10:08:27;4.83;;;4.43;;
7707;SDS011;3896;48.758;8.888;2024-03-06T10:10:53;5.23;;;4.37;;
7707;SDS011;3896;48.758;8.888;2024-03-06T10:13:27;6.20;;;4.50;;
7707;SDS011;3896;48.758;8.888;2024-03-06T10:15:57;5.53;;;4.93;;
7707;SDS011;3896;48.758;8.888;2024-03-06T10:18:26;5.97;;;5.37;;
7707;SDS011;3896;48.758;8.888;2024-03-06T10:20:56;8.83;;;6.17;;
7707;SDS011;3896;48.758;8.888;2024-03-06T10:23:22;8.77;;;6.73;;
7707;SDS011;3896;48.758;8.888;2024-03-06T10:25:48;7.40;;;6.70;;
7707;SDS011;3896;48.758;8.888;2024-03-06T10:28:21;7.47;;;5.97;;
7707;SDS011;3896;48.758;8.888;2024-03-06T10:30:48;8.00;;;6.43;;
7707;SDS011;3896;48.758;8.888;2024-03-06T10:33:15;9.17;;;6.70;;
7707;SDS011;3896;48.758;8.888;2024-03-06T10:35:44;9.13;;;6.73;;
7707;SDS011;3896;48.758;8.888;2024-03-06T10:38:10;8.03;;;6.67;;
7707;SDS011;3896;48.758;8.888;2024-03-06T10:40:40;7.73;;;6.80;;
7707;SDS011;3896;48.758;8.888;2024-03-06T10:43:07;7.37;;;6.67;;
7707;SDS011;3896;48.758;8.888;2024-03-06T10:48:08;10.10;;;6.60;;
7707;SDS011;3896;48.758;8.888;2024-03-06T10:50:36;8.53;;;6.53;;
7707;SDS011;3896;48.758;8.888;2024-03-06T10:53:07;7.90;;;7.00;;
7707;SDS011;3896;48.758;8.888;2024-03-06T10:55:35;9.90;;;7.57;;
7707;SDS011;3896;48.758;8.888;2024-03-06T10:58:01;9.77;;;7.77;;
7707;SDS011;3896;48.758;8.888;2024-03-06T11:00:34;7.77;;;6.30;;
7707;SDS011;3896;48.758;8.888;2024-03-06T11:03:09;9.20;;;7.20;;
7707;SDS011;3896;48.758;8.888;2024-03-06T11:05:38;7.47;;;6.57;;
7707;SDS011;3896;48.758;8.888;2024-03-06T11:08:05;9.53;;;7.67;;
7707;SDS011;3896;48.758;8.888;2024-03-06T11:10:35;14.07;;;9.47;;
7707;SDS011;3896;48.758;8.888;2024-03-06T11:13:02;14.37;;;11.23;;
7707;SDS011;3896;48.758;8.888;2024-03-06T11:15:30;13.83;;;9.70;;
7707;SDS011;3896;48.758;8.888;2024-03-06T11:17:56;9.17;;;8.03;;
7707;SDS011;3896;48.758;8.888;2024-03-06T11:20:22;11.23;;;8.50;;
7707;SDS011;3896;48.758;8.888;2024-03-06T11:28:22;10.13;;;7.63;;
7707;SDS011;3896;48.758;8.888;2024-03-06T11:30:54;10.83;;;8.53;;
7707;SDS011;3896;48.758;8.888;2024-03-06T11:33:26;9.83;;;7.17;;
7707;SDS011;3896;48.758;8.888;2024-03-06T11:36:19;10.43;;;7.87;;
7707;SDS011;3896;48.758;8.888;2024-03-06T11:39:02;10.30;;;8.07;;
7707;SDS011;3896;48.758;8.888;2024-03-06T11:41:31;8.77;;;7.53;;
7707;SDS011;3896;48.758;8.888;2024-03-06T11:44:15;9.10;;;7.27;;
7707;SDS011;3896;48.758;8.888;2024-03-06T11:49:31;9.90;;;7.67;;
7707;SDS011;3896;48.758;8.888;2024-03-06T11:52:03;7.90;;;6.60;;
7707;SDS011;3896;48.758;8.888;2024-03-06T11:54:31;7.23;;;6.47;;
7707;SDS011;3896;48.758;8.888;2024-03-06T11:56:58;9.60;;;7.03;;
7707;SDS011;3896;48.758;8.888;2024-03-06T11:59:25;9.60;;;7.43;;
7707;SDS011;3896;48.758;8.888;2024-03-06T12:01:52;10.30;;;6.83;;
7707;SDS011;3896;48.758;8.888;2024-03-06T12:04:19;9.83;;;7.90;;
7707;SDS011;3896;48.758;8.888;2024-03-06T12:06:46;8.93;;;6.97;;
7707;SDS011;3896;48.758;8.888;2024-03-06T12:09:12;10.63;;;7.47;;
7707;SDS011;3896;48.758;8.888;2024-03-06T12:11:38;9.60;;;7.10;;
7707;SDS011;3896;48.758;8.888;2024-03-06T12:14:04;9.67;;;7.17;;
7707;SDS011;3896;48.758;8.888;2024-03-06T12:16:30;9.53;;;6.63;;
7707;SDS011;3896;48.758;8.888;2024-03-06T12:18:58;8.37;;;6.97;;
7707;SDS011;3896;48.758;8.888;2024-03-06T12:21:27;12.13;;;8.17;;
7707;SDS011;3896;48.758;8.888;2024-03-06T12:24:03;10.80;;;8.57;;
7707;SDS011;3896;48.758;8.888;2024-03-06T12:26:33;9.93;;;7.73;;
7707;SDS011;3896;48.758;8.888;2024-03-06T12:29:05;10.13;;;8.07;;
7707;SDS011;3896;48.758;8.888;2024-03-06T12:31:33;8.57;;;7.67;;
7707;SDS011;3896;48.758;8.888;2024-03-06T12:34:00;13.10;;;7.70;;
7707;SDS011;3896;48.758;8.888;2024-03-06T12:36:29;11.70;;;8.70;;
7707;SDS011;3896;48.758;8.888;2024-03-06T12:38:55;12.03;;;9.20;;
7707;SDS011;3896;48.758;8.888;2024-03-06T12:41:21;13.67;;;10.00;;
7707;SDS011;3896;48.758;8.888;2024-03-06T12:43:47;11.57;;;9.07;;
7707;SDS011;3896;48.758;8.888;2024-03-06T12:46:13;14.07;;;9.33;;
7707;SDS011;3896;48.758;8.888;2024-03-06T12:48:38;10.73;;;8.57;;
7707;SDS011;3896;48.758;8.888;2024-03-06T12:51:04;12.70;;;8.83;;
7707;SDS011;3896;48.758;8.888;2024-03-06T12:53:29;15.20;;;10.47;;
7707;SDS011;3896;48.758;8.888;2024-03-06T12:55:58;10.27;;;8.07;;
7707;SDS011;3896;48.758;8.888;2024-03-06T12:58:24;11.17;;;8.43;;
7707;SDS011;3896;48.758;8.888;2024-03-06T13:00:49;13.80;;;9.00;;
7707;SDS011;3896;48.758;8.888;2024-03-06T13:03:17;11.83;;;7.83;;
7707;SDS011;3896;48.758;8.888;2024-03-06T13:05:43;20.00;;;12.53;;
7707;SDS011;3896;48.758;8.888;2024-03-06T13:08:08;10.97;;;9.20;;
7707;SDS011;3896;48.758;8.888;2024-03-06T13:10:34;12.10;;;8.60;;
7707;SDS011;3896;48.758;8.888;2024-03-06T13:13:00;9.47;;;8.23;;
7707;SDS011;3896;48.758;8.888;2024-03-06T13:15:26;9.97;;;8.63;;
7707;SDS011;3896;48.758;8.888;2024-03-06T13:17:51;9.87;;;8.70;;
7707;SDS011;3896;48.758;8.888;2024-03-06T13:20:17;8.93;;;7.43;;
7707;SDS011;3896;48.758;8.888;2024-03-06T13:22:43;9.23;;;7.93;;
7707;SDS011;3896;48.758;8.888;2024-03-06T13:25:09;11.70;;;9.13;;
7707;SDS011;3896;48.758;8.888;2024-03-06T13:27:34;11.07;;;8.47;;
7707;SDS011;3896;48.758;8.888;2024-03-06T13:30:00;8.63;;;7.63;;
7707;SDS011;3896;48.758;8.888;2024-03-06T13:32:26;10.90;;;8.37;;
7707;SDS011;3896;48.758;8.888;2024-03-06T13:34:51;11.00;;;8.70;;
7707;SDS011;3896;48.758;8.888;2024-03-06T13:37:17;10.70;;;7.37;;
7707;SDS011;3896;48.758;8.888;2024-03-06T13:39:43;11.57;;;7.60;;
7707;SDS011;3896;48.758;8.888;2024-03-06T13:42:09;10.90;;;8.03;;
7707;SDS011;3896;48.758;8.888;2024-03-06T13:44:35;10.13;;;8.53;;
7707;SDS011;3896;48.758;8.888;2024-03-06T13:47:01;8.93;;;8.03;;
7707;SDS011;3896;48.758;8.888;2024-03-06T13:49:34;10.00;;;7.87;;
7707;SDS011;3896;48.758;8.888;2024-03-06T13:52:01;10.23;;;7.90;;
7707;SDS011;3896;48.758;8.888;2024-03-06T13:54:27;11.83;;;8.20;;
7707;SDS011;3896;48.758;8.888;2024-03-06T13:56:53;11.03;;;8.30;;
7707;SDS011;3896;48.758;8.888;2024-03-06T13:59:26;12.77;;;8.80;;
7707;SDS011;3896;48.758;8.888;2024-03-06T14:01:52;12.60;;;8.73;;
7707;SDS011;3896;48.758;8.888;2024-03-06T14:04:18;10.43;;;8.90;;
7707;SDS011;3896;48.758;8.888;2024-03-06T14:06:44;15.23;;;8.87;;
7707;SDS011;3896;48.758;8.888;2024-03-06T14:09:09;11.63;;;8.87;;
7707;SDS011;3896;48.758;8.888;2024-03-06T14:11:35;12.17;;;9.77;;
7707;SDS011;3896;48.758;8.888;2024-03-06T14:14:00;11.77;;;9.40;;
7707;SDS011;3896;48.758;8.888;2024-03-06T14:16:26;12.07;;;8.73;;
7707;SDS011;3896;48.758;8.888;2024-03-06T14:18:52;12.30;;;9.83;;
7707;SDS011;3896;48.758;8.888;2024-03-06T14:21:18;12.97;;;9.60;;
7707;SDS011;3896;48.758;8.888;2024-03-06T14:23:44;11.77;;;9.03;;
7707;SDS011;3896;48.758;8.888;2024-03-06T14:26:09;11.87;;;9.63;;
7707;SDS011;3896;48.758;8.888;2024-03-06T14:28:35;12.23;;;9.27;;
7707;SDS011;3896;48.758;8.888;2024-03-06T14:31:00;12.47;;;9.53;;
7707;SDS011;3896;48.758;8.888;2024-03-06T14:33:26;12.13;;;8.70;;
7707;SDS011;3896;48.758;8.888;2024-03-06T14:35:52;11.57;;;8.77;;
7707;SDS011;3896;48.758;8.888;2024-03-06T14:38:17;14.30;;;10.10;;
7707;SDS011;3896;48.758;8.888;2024-03-06T14:40:43;15.80;;;8.87;;
7707;SDS011;3896;48.758;8.888;2024-03-06T14:43:09;14.13;;;9.33;;
7707;SDS011;3896;48.758;8.888;2024-03-06T14:45:35;13.17;;;9.83;;
7707;SDS011;3896;48.758;8.888;2024-03-06T14:48:06;12.90;;;9.53;;
7707;SDS011;3896;48.758;8.888;2024-03-06T14:50:32;12.60;;;9.23;;
7707;SDS011;3896;48.758;8.888;2024-03-06T14:52:58;16.93;;;9.87;;
7707;SDS011;3896;48.758;8.888;2024-03-06T14:55:23;14.23;;;9.10;;
7707;SDS011;3896;48.758;8.888;2024-03-06T14:57:49;13.73;;;10.60;;
7707;SDS011;3896;48.758;8.888;2024-03-06T15:00:14;15.37;;;10.77;;
7707;SDS011;3896;48.758;8.888;2024-03-06T15:02:42;16.07;;;11.17;;
7707;SDS011;3896;48.758;8.888;2024-03-06T15:05:08;11.60;;;9.43;;
7707;SDS011;3896;48.758;8.888;2024-03-06T15:07:37;15.00;;;9.80;;
7707;SDS011;3896;48.758;8.888;2024-03-06T15:10:13;13.90;;;10.40;;
7707;SDS011;3896;48.758;8.888;2024-03-06T15:12:39;14.73;;;9.67;;
7707;SDS011;3896;48.758;8.888;2024-03-06T15:15:07;16.10;;;11.23;;
7707;SDS011;3896;48.758;8.888;2024-03-06T15:17:33;16.57;;;11.73;;
7707;SDS011;3896;48.758;8.888;2024-03-06T15:19:59;13.87;;;9.20;;
7707;SDS011;3896;48.758;8.888;2024-03-06T15:22:25;15.20;;;10.60;;
7707;SDS011;3896;48.758;8.888;2024-03-06T15:24:51;13.07;;;9.20;;
7707;SDS011;3896;48.758;8.888;2024-03-06T15:27:17;16.77;;;10.47;;
7707;SDS011;3896;48.758;8.888;2024-03-06T15:29:42;15.50;;;10.30;;
7707;SDS011;3896;48.758;8.888;2024-03-06T15:32:11;12.93;;;9.33;;
7707;SDS011;3896;48.758;8.888;2024-03-06T15:34:37;14.30;;;9.80;;